createdAt,value
2022-12-11T00:00:09.122Z,100815.72
2022-12-11T00:02:35.869Z,100824.63
2022-12-11T00:05:02.630Z,100818.44
2022-12-11T00:07:29.463Z,100819.91
2022-12-11T00:09:56.097Z,100814.78
2022-12-11T00:12:22.767Z,100808.72
2022-12-11T00:14:49.507Z,100806.78
2022-12-11T00:17:16.207Z,100815.84
2022-12-11T00:19:43.063Z,100806.47
2022-12-11T00:22:09.789Z,100807.59
2022-12-11T00:24:36.531Z,100807.19
2022-12-11T00:27:03.265Z,100813.66
2022-12-11T00:29:30.051Z,100810.59
2022-12-11T00:31:56.922Z,100798.19
2022-12-11T00:34:23.716Z,100799.50
2022-12-11T00:36:50.464Z,100792.97
2022-12-11T00:39:17.182Z,100790.53
2022-12-11T00:41:44.031Z,100797.63
2022-12-11T00:44:10.829Z,100790.69
2022-12-11T00:46:37.652Z,100780.63
2022-12-11T00:49:04.693Z,100784.16
2022-12-11T00:51:31.410Z,100785.75
2022-12-11T00:53:58.134Z,100792.34
2022-12-11T00:56:25.478Z,100778.41
2022-12-11T00:58:52.418Z,100790.22
2022-12-11T01:01:22.088Z,100783.28
2022-12-11T01:03:52.655Z,100789.47
2022-12-11T01:06:22.206Z,100778.34
2022-12-11T01:09:09.405Z,100789.66
2022-12-11T01:11:36.245Z,100788.09
2022-12-11T01:14:02.982Z,100784.41
2022-12-11T01:16:29.740Z,100784.75
2022-12-11T01:18:57.725Z,100789.47
2022-12-11T01:21:24.834Z,100793.75
2022-12-11T01:23:52.085Z,100789.72
2022-12-11T01:26:18.825Z,100802.59
2022-12-11T01:28:45.898Z,100799.19
2022-12-11T01:31:14.683Z,100801.31
2022-12-11T01:33:41.504Z,100791.69
2022-12-11T01:36:14.315Z,100798.63
2022-12-11T01:38:41.120Z,100789.75
2022-12-11T01:41:08.075Z,100789.78
2022-12-11T01:43:34.813Z,100793.47
2022-12-11T01:46:01.760Z,100789.91
2022-12-11T01:48:32.969Z,100794.19
2022-12-11T01:51:03.443Z,100801.66
2022-12-11T01:53:34.164Z,100803.47
2022-12-11T01:56:01.473Z,100806.53
2022-12-11T01:58:32.698Z,100807.47
2022-12-11T02:01:00.590Z,100801.16
2022-12-11T02:03:27.331Z,100804.59
2022-12-11T02:05:53.989Z,100800.19
2022-12-11T02:08:20.902Z,100799.22
2022-12-11T02:11:07.521Z,100804.47
2022-12-11T02:13:43.325Z,100793.34
2022-12-11T02:16:20.785Z,100797.31
2022-12-11T02:18:56.004Z,100802.16
2022-12-11T02:21:26.664Z,100809.50
2022-12-11T02:24:26.009Z,100808.81
2022-12-11T02:27:18.371Z,100807.94
2022-12-11T02:30:02.667Z,100813.66
2022-12-11T02:32:46.097Z,100805.75
2022-12-11T02:35:26.898Z,100803.44
2022-12-11T02:37:58.121Z,100801.44
2022-12-11T02:40:28.555Z,100798.69
2022-12-11T02:42:57.303Z,100799.28
2022-12-11T02:45:24.622Z,100799.06
2022-12-11T02:47:51.600Z,100800.81
2022-12-11T02:50:20.648Z,100807.06
2022-12-11T02:52:48.655Z,100803.22
2022-12-11T02:55:16.567Z,100799.03
2022-12-11T02:57:49.558Z,100794.63
2022-12-11T03:00:16.996Z,100796.56
2022-12-11T03:02:43.956Z,100791.56
2022-12-11T03:05:12.849Z,100792.41
2022-12-11T03:07:43.106Z,100795.72
2022-12-11T03:10:11.804Z,100796.16
2022-12-11T03:12:41.115Z,100791.91
2022-12-11T03:15:12.087Z,100791.25
2022-12-11T03:17:53.188Z,100784.94
2022-12-11T03:20:30.561Z,100790.41
2022-12-11T03:23:14.896Z,100804.81
2022-12-11T03:25:47.450Z,100803.03
2022-12-11T03:28:17.621Z,100804.81
2022-12-11T03:30:45.607Z,100807.34
2022-12-11T03:33:39.540Z,100805.53
2022-12-11T03:36:12.913Z,100809.38
2022-12-11T03:38:58.734Z,100809.66
2022-12-11T03:41:27.584Z,100805.31
2022-12-11T03:43:57.166Z,100804.44
2022-12-11T03:46:28.289Z,100799.53
2022-12-11T03:48:57.155Z,100801.81
2022-12-11T03:51:24.454Z,100798.34
2022-12-11T03:53:52.291Z,100794.88
2022-12-11T03:56:20.554Z,100796.19
2022-12-11T03:58:47.254Z,100787.09
2022-12-11T04:01:13.954Z,100790.09
2022-12-11T04:03:40.705Z,100789.84
2022-12-11T04:06:07.759Z,100794.44
2022-12-11T04:08:34.441Z,100791.69
2022-12-11T04:11:21.910Z,100788.41
2022-12-11T04:14:08.544Z,100794.22
2022-12-11T04:16:35.239Z,100799.13
2022-12-11T04:19:20.561Z,100788.66
2022-12-11T04:22:05.584Z,100792.78
2022-12-11T04:24:32.337Z,100792.31
2022-12-11T04:26:59.083Z,100792.75
2022-12-11T04:29:25.934Z,100792.13
2022-12-11T04:31:52.670Z,100786.84
2022-12-11T04:34:19.338Z,100785.69
2022-12-11T04:36:46.024Z,100791.78
2022-12-11T04:39:12.805Z,100781.63
2022-12-11T04:41:41.256Z,100778.22
2022-12-11T04:44:08.369Z,100784.25
2022-12-11T04:46:35.805Z,100781.47
2022-12-11T04:49:02.515Z,100785.66
2022-12-11T04:51:29.599Z,100780.56
2022-12-11T04:53:56.264Z,100775.44
2022-12-11T04:56:22.978Z,100785.72
2022-12-11T04:58:50.023Z,100783.22
2022-12-11T05:01:22.495Z,100782.25
2022-12-11T05:03:49.751Z,100781.41
2022-12-11T05:06:17.019Z,100784.91
2022-12-11T05:08:44.105Z,100776.50
2022-12-11T05:11:13.347Z,100776.47
2022-12-11T05:13:40.065Z,100771.81
2022-12-11T05:16:08.778Z,100764.06
2022-12-11T05:18:35.997Z,100769.44
2022-12-11T05:21:05.131Z,100760.06
2022-12-11T05:23:31.926Z,100762.41
2022-12-11T05:26:00.893Z,100765.56
2022-12-11T05:28:29.272Z,100763.84
2022-12-11T05:31:01.442Z,100759.03
2022-12-11T05:33:28.842Z,100757.09
2022-12-11T05:35:55.523Z,100758.94
2022-12-11T05:38:22.799Z,100750.50
2022-12-11T05:40:58.189Z,100743.34
2022-12-11T05:43:25.471Z,100758.25
2022-12-11T05:45:52.223Z,100760.13
2022-12-11T05:48:18.960Z,100755.75
2022-12-11T05:50:45.921Z,100751.31
2022-12-11T05:53:12.636Z,100748.69
2022-12-11T05:55:39.328Z,100749.38
2022-12-11T05:58:05.999Z,100749.16
2022-12-11T06:00:36.057Z,100746.97
2022-12-11T06:03:03.201Z,100754.88
2022-12-11T06:05:29.980Z,100743.66
2022-12-11T06:07:56.788Z,100744.44
2022-12-11T06:10:23.580Z,100741.75
2022-12-11T06:12:50.287Z,100752.22
2022-12-11T06:15:17.155Z,100743.63
2022-12-11T06:17:43.897Z,100735.63
2022-12-11T06:20:10.895Z,100743.56
2022-12-11T06:22:37.617Z,100743.53
2022-12-11T06:25:04.905Z,100741.13
2022-12-11T06:27:31.556Z,100748.91
2022-12-11T06:29:58.247Z,100742.78
2022-12-11T06:32:24.923Z,100747.09
2022-12-11T06:34:51.629Z,100756.06
2022-12-11T06:37:18.338Z,100755.00
2022-12-11T06:39:45.030Z,100750.56
2022-12-11T06:42:11.742Z,100747.81
2022-12-11T06:44:38.459Z,100754.69
2022-12-11T06:47:05.568Z,100748.78
2022-12-11T06:49:32.276Z,100759.94
2022-12-11T06:51:59.003Z,100763.50
2022-12-11T06:54:27.454Z,100760.69
2022-12-11T06:56:54.429Z,100744.38
2022-12-11T06:59:21.162Z,100764.50
2022-12-11T07:01:47.914Z,100761.81
2022-12-11T07:04:14.663Z,100753.78
2022-12-11T07:06:41.365Z,100755.56
2022-12-11T07:09:08.345Z,100755.66
2022-12-11T07:11:35.013Z,100755.91
2022-12-11T07:14:01.778Z,100761.72
2022-12-11T07:16:28.498Z,100753.84
2022-12-11T07:18:55.585Z,100754.91
2022-12-11T07:21:22.344Z,100754.25
2022-12-11T07:23:50.017Z,100750.84
2022-12-11T07:26:19.321Z,100756.97
2022-12-11T07:28:46.277Z,100754.41
2022-12-11T07:31:15.354Z,100759.28
2022-12-11T07:33:42.597Z,100776.16
2022-12-11T07:36:10.823Z,100769.91
2022-12-11T07:38:37.658Z,100768.84
2022-12-11T07:41:05.906Z,100770.09
2022-12-11T07:43:33.302Z,100764.84
2022-12-11T07:46:05.575Z,100769.19
2022-12-11T07:48:34.702Z,100772.59
2022-12-11T07:51:29.055Z,100764.56
2022-12-11T07:54:00.551Z,100773.25
2022-12-11T07:56:28.462Z,100764.81
2022-12-11T07:58:55.767Z,100770.25
2022-12-11T08:01:26.186Z,100773.22
2022-12-11T08:03:54.272Z,100782.22
2022-12-11T08:06:28.774Z,100767.66
2022-12-11T08:08:56.801Z,100769.34
2022-12-11T08:11:24.187Z,100771.34
2022-12-11T08:13:50.974Z,100778.34
2022-12-11T08:16:18.417Z,100781.22
2022-12-11T08:18:46.563Z,100783.94
2022-12-11T08:21:26.677Z,100786.34
2022-12-11T08:23:54.658Z,100782.16
2022-12-11T08:26:29.563Z,100781.31
2022-12-11T08:28:56.455Z,100775.34
2022-12-11T08:31:23.701Z,100781.25
2022-12-11T08:33:50.960Z,100780.31
2022-12-11T08:36:20.095Z,100781.41
2022-12-11T08:38:47.146Z,100774.31
2022-12-11T08:41:19.132Z,100791.00
2022-12-11T08:43:46.638Z,100776.16
2022-12-11T08:46:13.738Z,100786.63
2022-12-11T08:48:42.103Z,100780.38
2022-12-11T08:51:11.842Z,100773.66
2022-12-11T08:53:39.718Z,100776.22
2022-12-11T08:56:11.558Z,100787.38
2022-12-11T08:58:38.293Z,100778.69
2022-12-11T09:01:33.105Z,100769.81
2022-12-11T09:04:00.046Z,100778.69
2022-12-11T09:06:28.799Z,100785.97
2022-12-11T09:08:56.677Z,100785.00
2022-12-11T09:11:26.171Z,100787.72
2022-12-11T09:13:53.441Z,100785.06
2022-12-11T09:16:21.765Z,100786.63
2022-12-11T09:18:49.836Z,100786.75
2022-12-11T09:21:18.979Z,100785.09
2022-12-11T09:23:46.256Z,100794.50
2022-12-11T09:26:17.083Z,100791.03
2022-12-11T09:28:46.638Z,100785.53
2022-12-11T09:31:16.969Z,100785.63
2022-12-11T09:33:44.431Z,100784.78
2022-12-11T09:36:12.249Z,100788.28
2022-12-11T09:42:09.234Z,100775.06
2022-12-11T09:44:46.723Z,100766.91
2022-12-11T09:47:40.324Z,100769.69
2022-12-11T09:50:14.937Z,100767.31
2022-12-11T09:52:58.118Z,100754.38
2022-12-11T09:55:28.871Z,100753.38
2022-12-11T09:58:18.681Z,100753.34
2022-12-11T10:00:51.375Z,100763.00
2022-12-11T10:03:19.105Z,100757.59
2022-12-11T10:06:05.691Z,100756.09
2022-12-11T10:08:44.612Z,100750.00
2022-12-11T10:11:23.580Z,100746.50
2022-12-11T10:13:55.920Z,100748.41
2022-12-11T10:16:37.632Z,100744.06
2022-12-11T10:19:04.706Z,100745.75
2022-12-11T10:21:40.089Z,100741.13
2022-12-11T10:24:59.359Z,100738.50
2022-12-11T10:27:21.527Z,100745.38
2022-12-11T10:29:49.633Z,100735.00
2022-12-11T10:32:23.871Z,100731.53
2022-12-11T10:35:00.457Z,100733.47
2022-12-11T10:37:27.313Z,100722.13
2022-12-11T10:39:54.166Z,100722.00
2022-12-11T10:42:22.665Z,100715.06
2022-12-11T10:45:01.234Z,100718.47
2022-12-11T10:47:31.383Z,100714.38
2022-12-11T10:50:02.733Z,100719.50
2022-12-11T10:52:38.224Z,100722.97
2022-12-11T10:55:08.703Z,100715.78
2022-12-11T10:57:36.884Z,100709.75
2022-12-11T11:00:06.910Z,100711.41
2022-12-11T11:02:41.548Z,100707.94
2022-12-11T11:05:17.324Z,100709.81
2022-12-11T11:07:44.141Z,100710.47
2022-12-11T11:10:10.978Z,100708.13
2022-12-11T11:12:49.480Z,100696.75
2022-12-11T11:15:28.693Z,100703.69
2022-12-11T11:17:58.119Z,100695.91
2022-12-11T11:20:28.016Z,100695.97
2022-12-11T11:23:00.815Z,100700.28
2022-12-11T11:25:33.295Z,100681.25
2022-12-11T11:28:02.735Z,100683.06
2022-12-11T11:30:32.025Z,100688.03
2022-12-11T11:33:02.436Z,100682.84
2022-12-11T11:35:30.950Z,100687.28
2022-12-11T11:38:20.390Z,100680.34
2022-12-11T11:40:50.064Z,100671.59
2022-12-11T11:43:37.947Z,100673.09
2022-12-11T11:46:11.552Z,100676.53
2022-12-11T11:49:01.090Z,100669.78
2022-12-11T11:51:34.300Z,100668.16
2022-12-11T11:54:04.071Z,100669.13
2022-12-11T11:56:37.671Z,100659.53
2022-12-11T11:59:17.853Z,100663.00
2022-12-11T12:01:45.858Z,100664.78
2022-12-11T12:04:12.669Z,100659.44
2022-12-11T12:07:14.177Z,100662.78
2022-12-11T12:09:58.878Z,100662.06
2022-12-11T12:12:40.818Z,100664.69
2022-12-11T12:15:38.101Z,100661.25
2022-12-11T12:18:13.046Z,100658.69
2022-12-11T12:21:16.590Z,100662.91
2022-12-11T12:24:08.684Z,100662.91
2022-12-11T12:26:37.646Z,100661.91
2022-12-11T12:29:42.334Z,100661.13
2022-12-11T12:32:16.609Z,100655.88
2022-12-11T12:35:14.661Z,100653.34
2022-12-11T12:38:02.581Z,100654.22
2022-12-11T12:40:36.572Z,100657.69
2022-12-11T12:43:28.769Z,100656.66
2022-12-11T12:45:58.398Z,100658.25
2022-12-11T12:48:26.418Z,100659.19
2022-12-11T12:50:53.114Z,100655.78
2022-12-11T12:53:24.581Z,100653.91
2022-12-11T12:55:52.151Z,100655.56
2022-12-11T12:58:46.550Z,100650.31
2022-12-11T13:01:13.191Z,100640.94
2022-12-11T13:03:58.042Z,100641.06
2022-12-11T13:06:33.061Z,100633.13
2022-12-11T13:09:20.318Z,100642.56
2022-12-11T13:11:52.168Z,100645.28
2022-12-11T13:14:18.772Z,100641.00
2022-12-11T13:16:47.551Z,100635.63
2022-12-11T13:19:25.541Z,100631.25
2022-12-11T13:22:13.608Z,100638.91
2022-12-11T13:24:48.647Z,100634.66
2022-12-11T13:27:40.949Z,100624.50
2022-12-11T13:30:20.137Z,100626.16
2022-12-11T13:32:59.153Z,100626.06
2022-12-11T13:35:26.698Z,100628.66
2022-12-11T13:37:54.558Z,100632.09
2022-12-11T13:40:25.285Z,100625.97
2022-12-11T13:42:57.742Z,100620.81
2022-12-11T13:45:39.562Z,100627.06
2022-12-11T13:48:17.649Z,100628.00
2022-12-11T13:50:44.600Z,100633.91
2022-12-11T13:53:17.324Z,100626.78
2022-12-11T13:55:44.351Z,100617.19
2022-12-11T13:58:19.283Z,100611.16
2022-12-11T14:01:03.386Z,100621.75
2022-12-11T14:03:31.498Z,100612.09
2022-12-11T14:05:59.247Z,100619.00
2022-12-11T14:08:34.312Z,100617.31
2022-12-11T14:11:01.402Z,100617.56
2022-12-11T14:13:33.841Z,100627.16
2022-12-11T14:16:00.536Z,100622.69
2022-12-11T14:18:30.475Z,100609.66
2022-12-11T14:20:59.438Z,100623.66
2022-12-11T14:23:31.925Z,100623.28
2022-12-11T14:26:01.127Z,100622.44
2022-12-11T14:28:31.087Z,100624.31
2022-12-11T14:30:59.723Z,100634.72
2022-12-11T14:33:31.349Z,100630.31
2022-12-11T14:35:58.224Z,100638.16
2022-12-11T14:39:12.182Z,100639.09
2022-12-11T14:41:46.973Z,100630.34
2022-12-11T14:44:16.830Z,100633.09
2022-12-11T14:46:50.079Z,100624.34
2022-12-11T14:49:32.084Z,100623.47
2022-12-11T14:52:00.003Z,100612.13
2022-12-11T14:54:53.775Z,100619.84
2022-12-11T14:57:27.147Z,100620.75
2022-12-11T14:59:54.480Z,100617.09
2022-12-11T15:02:30.905Z,100611.84
2022-12-11T15:05:01.744Z,100605.69
2022-12-11T15:07:28.972Z,100617.31
2022-12-11T15:09:55.693Z,100607.59
2022-12-11T15:12:22.540Z,100609.09
2022-12-11T15:14:54.587Z,100618.56
2022-12-11T15:17:22.879Z,100623.91
2022-12-11T15:19:57.406Z,100623.38
2022-12-11T15:22:28.399Z,100627.59
2022-12-11T15:24:55.314Z,100625.06
2022-12-11T15:27:35.681Z,100620.72
2022-12-11T15:30:18.056Z,100629.38
2022-12-11T15:32:44.921Z,100623.38
2022-12-11T15:35:26.617Z,100620.53
2022-12-11T15:37:54.938Z,100624.09
2022-12-11T15:40:22.178Z,100629.31
2022-12-11T15:42:49.282Z,100631.03
2022-12-11T15:45:21.165Z,100631.88
2022-12-11T15:47:49.223Z,100627.63
2022-12-11T15:50:18.503Z,100622.31
2022-12-11T15:52:45.704Z,100618.81
2022-12-11T15:55:12.833Z,100625.72
2022-12-11T15:57:46.062Z,100622.94
2022-12-11T16:00:18.774Z,100629.22
2022-12-11T16:02:46.242Z,100638.94
2022-12-11T16:05:13.488Z,100631.84
2022-12-11T16:07:40.538Z,100632.69
2022-12-11T16:10:08.412Z,100631.78
2022-12-11T16:12:35.120Z,100632.59
2022-12-11T16:15:02.631Z,100625.56
2022-12-11T16:17:29.635Z,100624.94
2022-12-11T16:19:56.439Z,100624.03
2022-12-11T16:22:23.128Z,100629.25
2022-12-11T16:24:54.724Z,100626.72
2022-12-11T16:27:23.216Z,100630.25
2022-12-11T16:29:50.745Z,100626.88
2022-12-11T16:32:17.803Z,100628.38
2022-12-11T16:34:45.035Z,100631.13
2022-12-11T16:37:12.049Z,100637.28
2022-12-11T16:39:38.842Z,100636.31
2022-12-11T16:42:06.518Z,100625.94
2022-12-11T16:44:33.257Z,100622.47
2022-12-11T16:47:00.019Z,100624.22
2022-12-11T16:49:26.814Z,100631.97
2022-12-11T16:51:53.541Z,100620.72
2022-12-11T16:54:20.362Z,100614.59
2022-12-11T16:56:47.297Z,100629.56
2022-12-11T16:59:14.283Z,100621.50
2022-12-11T17:01:41.925Z,100619.81
2022-12-11T17:04:08.918Z,100625.84
2022-12-11T17:06:35.739Z,100616.38
2022-12-11T17:09:02.500Z,100618.88
2022-12-11T17:11:29.429Z,100621.38
2022-12-11T17:14:07.262Z,100627.41
2022-12-11T17:16:36.889Z,100631.00
2022-12-11T17:19:07.563Z,100629.91
2022-12-11T17:21:34.447Z,100632.81
2022-12-11T17:24:01.201Z,100636.28
2022-12-11T17:26:28.785Z,100627.53
2022-12-11T17:28:56.874Z,100616.03
2022-12-11T17:31:23.742Z,100624.09
2022-12-11T17:33:50.623Z,100626.56
2022-12-11T17:36:19.699Z,100624.66
2022-12-11T17:38:47.346Z,100620.38
2022-12-11T17:41:20.373Z,100609.16
2022-12-11T17:43:49.600Z,100615.22
2022-12-11T17:46:16.706Z,100611.63
2022-12-11T17:48:44.052Z,100604.91
2022-12-11T17:51:12.760Z,100612.81
2022-12-11T17:53:39.848Z,100615.06
2022-12-11T17:56:08.313Z,100616.88
2022-12-11T17:58:35.314Z,100617.88
2022-12-11T18:01:07.460Z,100619.75
2022-12-11T18:03:35.507Z,100619.63
2022-12-11T18:06:09.127Z,100615.28
2022-12-11T18:08:36.152Z,100611.16
2022-12-11T18:11:12.260Z,100614.59
2022-12-11T18:13:39.504Z,100612.88
2022-12-11T18:16:12.026Z,100607.53
2022-12-11T18:18:39.168Z,100609.13
2022-12-11T18:21:06.200Z,100617.09
2022-12-11T18:23:33.023Z,100610.16
2022-12-11T18:25:59.757Z,100615.09
2022-12-11T18:28:27.619Z,100614.22
2022-12-11T18:30:54.796Z,100621.09
2022-12-11T18:33:21.947Z,100621.19
2022-12-11T18:35:49.586Z,100615.41
2022-12-11T18:38:16.506Z,100613.47
2022-12-11T18:40:43.290Z,100618.91
2022-12-11T18:43:10.065Z,100615.34
2022-12-11T18:45:40.821Z,100612.66
2022-12-11T18:48:08.514Z,100623.22
2022-12-11T18:50:35.458Z,100604.94
2022-12-11T18:53:02.744Z,100608.44
2022-12-11T18:55:30.269Z,100608.31
2022-12-11T18:57:56.987Z,100600.59
2022-12-11T19:00:23.901Z,100605.81
2022-12-11T19:02:52.434Z,100601.47
2022-12-11T19:05:19.371Z,100610.78
2022-12-11T19:07:46.175Z,100607.09
2022-12-11T19:10:12.904Z,100606.41
2022-12-11T19:12:39.684Z,100609.09
2022-12-11T19:15:06.897Z,100608.38
2022-12-11T19:17:33.595Z,100609.13
2022-12-11T19:20:19.073Z,100613.19
2022-12-11T19:22:50.461Z,100608.97
2022-12-11T19:25:17.259Z,100609.25
2022-12-11T19:27:46.971Z,100605.69
2022-12-11T19:30:13.741Z,100616.22
2022-12-11T19:32:40.550Z,100613.47
2022-12-11T19:35:07.412Z,100613.41
2022-12-11T19:37:34.147Z,100610.72
2022-12-11T19:40:00.869Z,100615.00
2022-12-11T19:42:27.613Z,100616.91
2022-12-11T19:44:54.281Z,100617.94
2022-12-11T19:47:21.120Z,100611.75
2022-12-11T19:49:48.798Z,100610.84
2022-12-11T19:52:15.501Z,100617.72
2022-12-11T19:54:42.313Z,100617.00
2022-12-11T19:57:09.073Z,100615.06
2022-12-11T19:59:35.852Z,100620.34
2022-12-11T20:02:03.237Z,100609.09
2022-12-11T20:04:30.026Z,100608.97
2022-12-11T20:06:56.818Z,100612.50
2022-12-11T20:09:24.534Z,100613.44
2022-12-11T20:11:51.403Z,100613.19
2022-12-11T20:14:23.846Z,100609.75
2022-12-11T20:17:10.537Z,100610.59
2022-12-11T20:19:38.511Z,100606.16
2022-12-11T20:22:05.772Z,100593.19
2022-12-11T20:24:32.545Z,100601.22
2022-12-11T20:26:59.267Z,100605.47
2022-12-11T20:29:26.114Z,100600.41
2022-12-11T20:31:52.894Z,100603.94
2022-12-11T20:34:20.366Z,100606.50
2022-12-11T20:36:48.514Z,100610.91
2022-12-11T20:39:15.910Z,100611.75
2022-12-11T20:41:42.760Z,100611.69
2022-12-11T20:44:09.515Z,100609.03
2022-12-11T20:46:36.447Z,100610.00
2022-12-11T20:49:03.497Z,100615.03
2022-12-11T20:51:32.400Z,100613.41
2022-12-11T20:53:59.949Z,100612.69
2022-12-11T20:56:29.482Z,100611.78
2022-12-11T20:58:57.000Z,100604.78
2022-12-11T21:01:25.273Z,100614.38
2022-12-11T21:03:53.669Z,100610.88
2022-12-11T21:06:25.967Z,100616.03
2022-12-11T21:08:53.591Z,100611.88
2022-12-11T21:11:20.524Z,100616.88
2022-12-11T21:13:50.632Z,100603.84
2022-12-11T21:16:18.889Z,100610.97
2022-12-11T21:18:46.754Z,100597.94
2022-12-11T21:21:13.749Z,100595.31
2022-12-11T21:23:40.553Z,100609.19
2022-12-11T21:26:07.237Z,100600.59
2022-12-11T21:28:35.735Z,100603.97
2022-12-11T21:31:05.666Z,100617.09
2022-12-11T21:33:32.888Z,100612.84
2022-12-11T21:36:00.381Z,100617.94
2022-12-11T21:38:27.894Z,100617.84
2022-12-11T21:40:55.625Z,100615.25
2022-12-11T21:43:22.796Z,100609.09
2022-12-11T21:46:00.875Z,100602.34
2022-12-11T21:48:28.710Z,100607.53
2022-12-11T21:50:55.374Z,100606.78
2022-12-11T21:53:22.039Z,100602.31
2022-12-11T21:55:48.752Z,100606.50
2022-12-11T21:58:16.046Z,100605.75
2022-12-11T22:00:42.804Z,100599.44
2022-12-11T22:03:09.743Z,100611.81
2022-12-11T22:05:36.483Z,100595.09
2022-12-11T22:08:03.392Z,100602.16
2022-12-11T22:10:30.209Z,100598.56
2022-12-11T22:12:56.897Z,100598.69
2022-12-11T22:15:23.774Z,100595.97
2022-12-11T22:17:52.165Z,100605.63
2022-12-11T22:20:18.870Z,100596.81
2022-12-11T22:22:46.829Z,100594.22
2022-12-11T22:25:14.034Z,100579.72
2022-12-11T22:27:41.178Z,100590.88
2022-12-11T22:30:08.504Z,100584.66
2022-12-11T22:32:35.193Z,100583.84
2022-12-11T22:35:01.896Z,100579.53
2022-12-11T22:37:29.635Z,100581.25
2022-12-11T22:39:56.355Z,100575.22
2022-12-11T22:42:22.990Z,100574.31
2022-12-11T22:44:49.780Z,100569.16
2022-12-11T22:47:16.477Z,100565.50
2022-12-11T22:49:43.464Z,100566.44
2022-12-11T22:52:10.765Z,100576.00
2022-12-11T22:54:41.356Z,100589.78
2022-12-11T22:57:08.926Z,100581.19
2022-12-11T22:59:36.123Z,100589.91
2022-12-11T23:02:03.213Z,100588.13
2022-12-11T23:04:30.055Z,100587.28
2022-12-11T23:06:56.766Z,100590.63
2022-12-11T23:09:24.261Z,100586.50
2022-12-11T23:11:51.320Z,100590.09
2022-12-11T23:14:18.440Z,100593.50
2022-12-11T23:16:45.363Z,100595.41
2022-12-11T23:19:12.620Z,100600.66
2022-12-11T23:21:39.348Z,100604.22
2022-12-11T23:24:06.337Z,100609.28
2022-12-11T23:26:33.017Z,100615.41
2022-12-11T23:29:00.026Z,100610.22
2022-12-11T23:31:27.294Z,100604.94
2022-12-11T23:33:54.319Z,100602.31
2022-12-11T23:36:21.286Z,100600.47
2022-12-11T23:38:54.161Z,100595.22
2022-12-11T23:41:21.487Z,100586.41
2022-12-11T23:43:48.217Z,100585.63
2022-12-11T23:46:17.226Z,100590.97
2022-12-11T23:48:44.260Z,100604.06
2022-12-11T23:51:14.278Z,100611.16
2022-12-11T23:53:41.694Z,100620.84
2022-12-11T23:56:18.284Z,100618.31
2022-12-11T23:58:45.423Z,100614.38
